sensor_id;sensor_type;location;lat;lon;timestamp;P1;durP1;ratioP1;P2;durP2;ratioP2
19113;SDS011;9689;51.052;13.772;2023-03-01T00:00:07;47.33;;;20.77;;
19113;SDS011;9689;51.052;13.772;2023-03-01T00:05:12;47.63;;;21.13;;
19113;SDS011;9689;51.052;13.772;2023-03-01T00:10:14;50.25;;;21.60;;
19113;SDS011;9689;51.052;13.772;2023-03-01T00:15:15;49.75;;;21.45;;
19113;SDS011;9689;51.052;13.772;2023-03-01T00:20:16;47.72;;;21.40;;
19113;SDS011;9689;51.052;13.772;2023-03-01T00:25:18;51.33;;;21.40;;
19113;SDS011;9689;51.052;13.772;2023-03-01T00:30:19;42.88;;;19.77;;
19113;SDS011;9689;51.052;13.772;2023-03-01T00:35:20;39.13;;;19.77;;
19113;SDS011;9689;51.052;13.772;2023-03-01T00:40:23;43.15;;;20.63;;
19113;SDS011;9689;51.052;13.772;2023-03-01T00:45:24;45.13;;;21.25;;
19113;SDS011;9689;51.052;13.772;2023-03-01T00:50:25;50.00;;;21.80;;
19113;SDS011;9689;51.052;13.772;2023-03-01T00:55:27;46.25;;;21.08;;
19113;SDS011;9689;51.052;13.772;2023-03-01T01:00:29;49.03;;;21.45;;
19113;SDS011;9689;51.052;13.772;2023-03-01T01:05:30;40.05;;;19.95;;
19113;SDS011;9689;51.052;13.772;2023-03-01T01:10:34;46.63;;;21.50;;
19113;SDS011;9689;51.052;13.772;2023-03-01T01:15:35;44.08;;;21.15;;
19113;SDS011;9689;51.052;13.772;2023-03-01T01:20:36;48.83;;;20.67;;
19113;SDS011;9689;51.052;13.772;2023-03-01T01:25:39;40.53;;;19.25;;
19113;SDS011;9689;51.052;13.772;2023-03-01T01:30:39;45.05;;;21.58;;
19113;SDS011;9689;51.052;13.772;2023-03-01T01:35:40;53.22;;;22.45;;
19113;SDS011;9689;51.052;13.772;2023-03-01T01:40:45;49.00;;;21.20;;
19113;SDS011;9689;51.052;13.772;2023-03-01T01:45:47;43.08;;;20.23;;
19113;SDS011;9689;51.052;13.772;2023-03-01T01:50:50;44.45;;;21.23;;
19113;SDS011;9689;51.052;13.772;2023-03-01T01:55:58;43.75;;;20.85;;
19113;SDS011;9689;51.052;13.772;2023-03-01T02:01:01;45.88;;;21.17;;
19113;SDS011;9689;51.052;13.772;2023-03-01T02:06:03;44.90;;;20.58;;
19113;SDS011;9689;51.052;13.772;2023-03-01T02:11:08;41.05;;;19.45;;
19113;SDS011;9689;51.052;13.772;2023-03-01T02:16:11;48.50;;;19.83;;
19113;SDS011;9689;51.052;13.772;2023-03-01T02:21:17;52.83;;;23.10;;
19113;SDS011;9689;51.052;13.772;2023-03-01T02:26:32;52.42;;;20.38;;
19113;SDS011;9689;51.052;13.772;2023-03-01T02:31:41;45.20;;;20.33;;
19113;SDS011;9689;51.052;13.772;2023-03-01T02:36:44;45.55;;;20.10;;
19113;SDS011;9689;51.052;13.772;2023-03-01T02:41:50;50.05;;;20.83;;
19113;SDS011;9689;51.052;13.772;2023-03-01T02:46:55;41.42;;;19.20;;
19113;SDS011;9689;51.052;13.772;2023-03-01T02:52:04;43.22;;;19.40;;
19113;SDS011;9689;51.052;13.772;2023-03-01T02:57:14;45.78;;;20.58;;
19113;SDS011;9689;51.052;13.772;2023-03-01T03:02:21;57.20;;;21.63;;
19113;SDS011;9689;51.052;13.772;2023-03-01T03:07:43;53.03;;;21.27;;
19113;SDS011;9689;51.052;13.772;2023-03-01T03:12:48;49.28;;;21.27;;
19113;SDS011;9689;51.052;13.772;2023-03-01T03:17:51;52.47;;;22.67;;
19113;SDS011;9689;51.052;13.772;2023-03-01T03:22:53;45.00;;;20.92;;
19113;SDS011;9689;51.052;13.772;2023-03-01T03:27:56;47.85;;;20.60;;
19113;SDS011;9689;51.052;13.772;2023-03-01T03:32:59;50.88;;;21.17;;
19113;SDS011;9689;51.052;13.772;2023-03-01T03:38:00;47.47;;;20.67;;
19113;SDS011;9689;51.052;13.772;2023-03-01T03:43:06;43.25;;;20.52;;
19113;SDS011;9689;51.052;13.772;2023-03-01T03:48:09;48.33;;;20.55;;
19113;SDS011;9689;51.052;13.772;2023-03-01T03:53:10;48.05;;;20.77;;
19113;SDS011;9689;51.052;13.772;2023-03-01T03:58:12;51.70;;;19.48;;
19113;SDS011;9689;51.052;13.772;2023-03-01T04:03:16;41.83;;;19.95;;
19113;SDS011;9689;51.052;13.772;2023-03-01T04:08:18;45.47;;;20.05;;
19113;SDS011;9689;51.052;13.772;2023-03-01T04:13:21;44.50;;;20.77;;
19113;SDS011;9689;51.052;13.772;2023-03-01T04:18:25;51.28;;;20.45;;
19113;SDS011;9689;51.052;13.772;2023-03-01T04:23:26;41.70;;;18.60;;
19113;SDS011;9689;51.052;13.772;2023-03-01T04:28:28;41.33;;;19.35;;
19113;SDS011;9689;51.052;13.772;2023-03-01T04:33:31;43.83;;;18.77;;
19113;SDS011;9689;51.052;13.772;2023-03-01T04:38:31;49.72;;;20.88;;
19113;SDS011;9689;51.052;13.772;2023-03-01T04:43:33;49.90;;;21.08;;
19113;SDS011;9689;51.052;13.772;2023-03-01T04:48:35;52.95;;;22.73;;
19113;SDS011;9689;51.052;13.772;2023-03-01T04:53:37;54.65;;;21.90;;
19113;SDS011;9689;51.052;13.772;2023-03-01T04:58:37;50.33;;;21.05;;
19113;SDS011;9689;51.052;13.772;2023-03-01T05:03:39;47.97;;;20.20;;
19113;SDS011;9689;51.052;13.772;2023-03-01T05:08:41;51.97;;;21.08;;
19113;SDS011;9689;51.052;13.772;2023-03-01T05:13:43;48.47;;;20.38;;
19113;SDS011;9689;51.052;13.772;2023-03-01T05:18:45;47.67;;;20.50;;
19113;SDS011;9689;51.052;13.772;2023-03-01T05:23:45;43.72;;;19.83;;
19113;SDS011;9689;51.052;13.772;2023-03-01T05:28:46;44.22;;;20.27;;
19113;SDS011;9689;51.052;13.772;2023-03-01T05:33:48;42.55;;;18.52;;
19113;SDS011;9689;51.052;13.772;2023-03-01T05:38:49;42.47;;;18.70;;
19113;SDS011;9689;51.052;13.772;2023-03-01T05:43:50;47.15;;;20.23;;
19113;SDS011;9689;51.052;13.772;2023-03-01T05:48:52;44.47;;;18.80;;
19113;SDS011;9689;51.052;13.772;2023-03-01T05:53:53;41.20;;;19.20;;
19113;SDS011;9689;51.052;13.772;2023-03-01T05:58:53;42.95;;;18.90;;
19113;SDS011;9689;51.052;13.772;2023-03-01T06:03:55;45.20;;;19.58;;
19113;SDS011;9689;51.052;13.772;2023-03-01T06:08:56;46.72;;;19.88;;
19113;SDS011;9689;51.052;13.772;2023-03-01T06:13:57;44.83;;;19.13;;
19113;SDS011;9689;51.052;13.772;2023-03-01T06:18:59;43.85;;;20.15;;
19113;SDS011;9689;51.052;13.772;2023-03-01T06:23:59;41.33;;;17.48;;
19113;SDS011;9689;51.052;13.772;2023-03-01T06:29:00;45.08;;;19.02;;
19113;SDS011;9689;51.052;13.772;2023-03-01T06:34:02;40.95;;;18.17;;
19113;SDS011;9689;51.052;13.772;2023-03-01T06:39:03;45.22;;;19.33;;
19113;SDS011;9689;51.052;13.772;2023-03-01T06:44:07;39.53;;;17.40;;
19113;SDS011;9689;51.052;13.772;2023-03-01T06:49:09;37.30;;;17.95;;
19113;SDS011;9689;51.052;13.772;2023-03-01T06:54:10;43.95;;;18.30;;
19113;SDS011;9689;51.052;13.772;2023-03-01T06:59:11;41.78;;;19.02;;
19113;SDS011;9689;51.052;13.772;2023-03-01T07:04:13;40.13;;;17.98;;
19113;SDS011;9689;51.052;13.772;2023-03-01T07:09:14;42.78;;;19.13;;
19113;SDS011;9689;51.052;13.772;2023-03-01T07:14:19;41.10;;;18.27;;
19113;SDS011;9689;51.052;13.772;2023-03-01T07:19:21;37.47;;;18.38;;
19113;SDS011;9689;51.052;13.772;2023-03-01T07:24:23;42.65;;;16.95;;
19113;SDS011;9689;51.052;13.772;2023-03-01T07:29:23;40.80;;;18.55;;
19113;SDS011;9689;51.052;13.772;2023-03-01T07:34:26;43.10;;;18.65;;
19113;SDS011;9689;51.052;13.772;2023-03-01T07:39:26;40.72;;;18.40;;
19113;SDS011;9689;51.052;13.772;2023-03-01T07:44:27;35.90;;;17.67;;
19113;SDS011;9689;51.052;13.772;2023-03-01T07:49:29;44.42;;;19.23;;
19113;SDS011;9689;51.052;13.772;2023-03-01T07:54:30;47.05;;;20.80;;
19113;SDS011;9689;51.052;13.772;2023-03-01T07:59:31;50.38;;;20.27;;
19113;SDS011;9689;51.052;13.772;2023-03-01T08:04:34;48.08;;;20.85;;
19113;SDS011;9689;51.052;13.772;2023-03-01T08:09:35;48.47;;;21.10;;
19113;SDS011;9689;51.052;13.772;2023-03-01T08:14:36;43.88;;;20.27;;
19113;SDS011;9689;51.052;13.772;2023-03-01T08:19:38;47.65;;;21.45;;
19113;SDS011;9689;51.052;13.772;2023-03-01T08:24:39;44.00;;;18.52;;
19113;SDS011;9689;51.052;13.772;2023-03-01T08:29:41;43.75;;;20.48;;
19113;SDS011;9689;51.052;13.772;2023-03-01T08:34:43;45.80;;;21.27;;
19113;SDS011;9689;51.052;13.772;2023-03-01T08:39:46;45.28;;;20.88;;
19113;SDS011;9689;51.052;13.772;2023-03-01T08:44:47;39.05;;;19.42;;
19113;SDS011;9689;51.052;13.772;2023-03-01T08:49:50;46.55;;;21.05;;
19113;SDS011;9689;51.052;13.772;2023-03-01T08:54:51;51.13;;;23.98;;
19113;SDS011;9689;51.052;13.772;2023-03-01T08:59:51;46.00;;;20.63;;
19113;SDS011;9689;51.052;13.772;2023-03-01T09:04:56;46.03;;;21.63;;
19113;SDS011;9689;51.052;13.772;2023-03-01T09:09:57;43.88;;;19.45;;
19113;SDS011;9689;51.052;13.772;2023-03-01T09:14:58;45.90;;;21.25;;
19113;SDS011;9689;51.052;13.772;2023-03-01T09:20:00;44.30;;;20.13;;
19113;SDS011;9689;51.052;13.772;2023-03-01T09:25:00;41.72;;;19.90;;
19113;SDS011;9689;51.052;13.772;2023-03-01T09:30:01;43.80;;;21.35;;
19113;SDS011;9689;51.052;13.772;2023-03-01T09:35:05;41.90;;;20.17;;
19113;SDS011;9689;51.052;13.772;2023-03-01T09:40:09;43.90;;;21.08;;
19113;SDS011;9689;51.052;13.772;2023-03-01T09:45:16;45.70;;;20.60;;
19113;SDS011;9689;51.052;13.772;2023-03-01T09:50:28;42.53;;;20.27;;
19113;SDS011;9689;51.052;13.772;2023-03-01T09:55:37;47.53;;;21.80;;
19113;SDS011;9689;51.052;13.772;2023-03-01T10:00:41;51.33;;;21.80;;
19113;SDS011;9689;51.052;13.772;2023-03-01T10:05:49;47.05;;;21.23;;
19113;SDS011;9689;51.052;13.772;2023-03-01T10:10:56;46.28;;;20.40;;
19113;SDS011;9689;51.052;13.772;2023-03-01T10:16:00;40.05;;;19.83;;
19113;SDS011;9689;51.052;13.772;2023-03-01T10:21:09;44.45;;;18.67;;
19113;SDS011;9689;51.052;13.772;2023-03-01T10:26:19;40.65;;;19.58;;
19113;SDS011;9689;51.052;13.772;2023-03-01T10:31:32;42.85;;;19.98;;
19113;SDS011;9689;51.052;13.772;2023-03-01T10:36:41;38.53;;;19.30;;
19113;SDS011;9689;51.052;13.772;2023-03-01T10:47:03;45.42;;;18.67;;
19113;SDS011;9689;51.052;13.772;2023-03-01T10:52:16;35.03;;;17.38;;
19113;SDS011;9689;51.052;13.772;2023-03-01T10:57:30;37.80;;;17.80;;
19113;SDS011;9689;51.052;13.772;2023-03-01T11:02:32;33.88;;;15.75;;
19113;SDS011;9689;51.052;13.772;2023-03-01T11:07:43;31.02;;;15.05;;
19113;SDS011;9689;51.052;13.772;2023-03-01T11:12:47;32.10;;;14.65;;
19113;SDS011;9689;51.052;13.772;2023-03-01T11:17:48;33.30;;;15.07;;
19113;SDS011;9689;51.052;13.772;2023-03-01T11:22:59;25.02;;;14.40;;
19113;SDS011;9689;51.052;13.772;2023-03-01T11:28:05;29.30;;;14.00;;
19113;SDS011;9689;51.052;13.772;2023-03-01T11:33:13;32.13;;;13.85;;
19113;SDS011;9689;51.052;13.772;2023-03-01T11:38:21;27.73;;;13.82;;
19113;SDS011;9689;51.052;13.772;2023-03-01T11:43:26;27.65;;;13.55;;
19113;SDS011;9689;51.052;13.772;2023-03-01T11:48:37;21.90;;;12.00;;
19113;SDS011;9689;51.052;13.772;2023-03-01T11:53:53;21.98;;;11.45;;
19113;SDS011;9689;51.052;13.772;2023-03-01T11:59:11;23.85;;;10.52;;
19113;SDS011;9689;51.052;13.772;2023-03-01T12:04:30;20.23;;;10.82;;
19113;SDS011;9689;51.052;13.772;2023-03-01T12:09:52;21.30;;;10.25;;
19113;SDS011;9689;51.052;13.772;2023-03-01T12:15:08;21.67;;;10.82;;
19113;SDS011;9689;51.052;13.772;2023-03-01T12:20:41;33.95;;;12.45;;
19113;SDS011;9689;51.052;13.772;2023-03-01T12:25:54;27.08;;;13.85;;
19113;SDS011;9689;51.052;13.772;2023-03-01T12:31:12;30.77;;;15.43;;
19113;SDS011;9689;51.052;13.772;2023-03-01T12:36:42;30.05;;;14.63;;
19113;SDS011;9689;51.052;13.772;2023-03-01T12:41:59;31.50;;;16.20;;
19113;SDS011;9689;51.052;13.772;2023-03-01T12:47:20;31.10;;;14.90;;
19113;SDS011;9689;51.052;13.772;2023-03-01T12:52:33;33.45;;;14.95;;
19113;SDS011;9689;51.052;13.772;2023-03-01T12:57:41;34.80;;;15.85;;
19113;SDS011;9689;51.052;13.772;2023-03-01T13:02:47;36.22;;;15.73;;
19113;SDS011;9689;51.052;13.772;2023-03-01T13:07:53;30.88;;;15.15;;
19113;SDS011;9689;51.052;13.772;2023-03-01T13:13:10;30.65;;;15.55;;
19113;SDS011;9689;51.052;13.772;2023-03-01T13:18:30;33.50;;;14.88;;
19113;SDS011;9689;51.052;13.772;2023-03-01T13:23:33;32.20;;;14.65;;
19113;SDS011;9689;51.052;13.772;2023-03-01T13:28:50;33.60;;;15.82;;
19113;SDS011;9689;51.052;13.772;2023-03-01T13:33:52;31.80;;;14.75;;
19113;SDS011;9689;51.052;13.772;2023-03-01T13:38:55;28.08;;;13.48;;
19113;SDS011;9689;51.052;13.772;2023-03-01T13:43:58;32.30;;;14.95;;
19113;SDS011;9689;51.052;13.772;2023-03-01T13:48:59;34.03;;;16.25;;
19113;SDS011;9689;51.052;13.772;2023-03-01T13:54:00;28.70;;;15.20;;
19113;SDS011;9689;51.052;13.772;2023-03-01T13:59:04;31.40;;;15.50;;
19113;SDS011;9689;51.052;13.772;2023-03-01T14:04:18;32.65;;;15.10;;
19113;SDS011;9689;51.052;13.772;2023-03-01T14:09:22;32.78;;;15.10;;
19113;SDS011;9689;51.052;13.772;2023-03-01T14:14:32;36.92;;;15.63;;
19113;SDS011;9689;51.052;13.772;2023-03-01T14:19:38;29.38;;;15.52;;
19113;SDS011;9689;51.052;13.772;2023-03-01T14:24:44;37.10;;;14.75;;
19113;SDS011;9689;51.052;13.772;2023-03-01T14:29:56;35.53;;;16.25;;
19113;SDS011;9689;51.052;13.772;2023-03-01T14:34:59;33.70;;;15.07;;
19113;SDS011;9689;51.052;13.772;2023-03-01T14:40:02;28.75;;;15.00;;
19113;SDS011;9689;51.052;13.772;2023-03-01T14:45:06;32.75;;;15.27;;
19113;SDS011;9689;51.052;13.772;2023-03-01T14:50:16;32.45;;;15.73;;
19113;SDS011;9689;51.052;13.772;2023-03-01T14:55:24;29.63;;;15.07;;
19113;SDS011;9689;51.052;13.772;2023-03-01T15:00:29;34.70;;;15.82;;
19113;SDS011;9689;51.052;13.772;2023-03-01T15:05:32;28.63;;;14.13;;
19113;SDS011;9689;51.052;13.772;2023-03-01T15:10:34;26.98;;;13.50;;
19113;SDS011;9689;51.052;13.772;2023-03-01T15:15:40;26.27;;;14.07;;
19113;SDS011;9689;51.052;13.772;2023-03-01T15:20:42;23.83;;;13.02;;
19113;SDS011;9689;51.052;13.772;2023-03-01T15:25:44;26.27;;;12.80;;
19113;SDS011;9689;51.052;13.772;2023-03-01T15:30:51;22.52;;;12.35;;
19113;SDS011;9689;51.052;13.772;2023-03-01T15:35:56;25.20;;;13.40;;
19113;SDS011;9689;51.052;13.772;2023-03-01T15:40:58;24.33;;;12.57;;
19113;SDS011;9689;51.052;13.772;2023-03-01T15:46:01;25.50;;;12.30;;
19113;SDS011;9689;51.052;13.772;2023-03-01T15:51:03;27.00;;;13.57;;
19113;SDS011;9689;51.052;13.772;2023-03-01T15:56:04;26.33;;;12.57;;
19113;SDS011;9689;51.052;13.772;2023-03-01T16:01:10;24.50;;;12.52;;
19113;SDS011;9689;51.052;13.772;2023-03-01T16:06:12;28.85;;;12.82;;
19113;SDS011;9689;51.052;13.772;2023-03-01T16:11:14;23.50;;;11.88;;
19113;SDS011;9689;51.052;13.772;2023-03-01T16:16:18;29.25;;;13.50;;
19113;SDS011;9689;51.052;13.772;2023-03-01T16:21:20;27.48;;;11.90;;
19113;SDS011;9689;51.052;13.772;2023-03-01T16:26:22;24.80;;;11.48;;
19113;SDS011;9689;51.052;13.772;2023-03-01T16:31:24;21.60;;;10.85;;
19113;SDS011;9689;51.052;13.772;2023-03-01T16:36:26;22.90;;;12.15;;
19113;SDS011;9689;51.052;13.772;2023-03-01T16:41:28;24.58;;;12.80;;
19113;SDS011;9689;51.052;13.772;2023-03-01T16:46:30;25.85;;;11.90;;
19113;SDS011;9689;51.052;13.772;2023-03-01T16:51:31;31.23;;;12.35;;
19113;SDS011;9689;51.052;13.772;2023-03-01T16:56:33;25.00;;;11.85;;
19113;SDS011;9689;51.052;13.772;2023-03-01T17:01:38;26.35;;;11.93;;
19113;SDS011;9689;51.052;13.772;2023-03-01T17:06:40;25.23;;;11.57;;
19113;SDS011;9689;51.052;13.772;2023-03-01T17:11:40;26.20;;;11.75;;
19113;SDS011;9689;51.052;13.772;2023-03-01T17:16:43;27.48;;;12.00;;
19113;SDS011;9689;51.052;13.772;2023-03-01T17:21:44;28.88;;;12.55;;
19113;SDS011;9689;51.052;13.772;2023-03-01T17:26:45;26.73;;;12.18;;
19113;SDS011;9689;51.052;13.772;2023-03-01T17:31:47;25.60;;;12.10;;
19113;SDS011;9689;51.052;13.772;2023-03-01T17:36:48;35.15;;;12.65;;
19113;SDS011;9689;51.052;13.772;2023-03-01T17:41:50;30.05;;;14.05;;
19113;SDS011;9689;51.052;13.772;2023-03-01T17:46:52;30.58;;;12.75;;
19113;SDS011;9689;51.052;13.772;2023-03-01T17:51:53;28.02;;;12.50;;
19113;SDS011;9689;51.052;13.772;2023-03-01T17:56:53;29.85;;;12.68;;
19113;SDS011;9689;51.052;13.772;2023-03-01T18:01:58;35.65;;;13.88;;
19113;SDS011;9689;51.052;13.772;2023-03-01T18:07:00;42.25;;;15.25;;
19113;SDS011;9689;51.052;13.772;2023-03-01T18:12:00;31.75;;;12.20;;
19113;SDS011;9689;51.052;13.772;2023-03-01T18:17:02;26.38;;;11.77;;
19113;SDS011;9689;51.052;13.772;2023-03-01T18:22:10;26.63;;;11.10;;
19113;SDS011;9689;51.052;13.772;2023-03-01T18:27:10;27.58;;;10.35;;
19113;SDS011;9689;51.052;13.772;2023-03-01T18:32:13;31.95;;;11.65;;
19113;SDS011;9689;51.052;13.772;2023-03-01T18:37:13;39.50;;;13.32;;
19113;SDS011;9689;51.052;13.772;2023-03-01T18:42:14;31.35;;;12.52;;
19113;SDS011;9689;51.052;13.772;2023-03-01T18:47:16;31.73;;;12.90;;
19113;SDS011;9689;51.052;13.772;2023-03-01T18:52:17;27.88;;;10.82;;
19113;SDS011;9689;51.052;13.772;2023-03-01T18:57:18;26.55;;;11.43;;
19113;SDS011;9689;51.052;13.772;2023-03-01T19:02:20;25.15;;;10.68;;
19113;SDS011;9689;51.052;13.772;2023-03-01T19:07:21;27.70;;;11.43;;
19113;SDS011;9689;51.052;13.772;2023-03-01T19:12:21;26.75;;;11.85;;
19113;SDS011;9689;51.052;13.772;2023-03-01T19:17:23;29.60;;;11.05;;
19113;SDS011;9689;51.052;13.772;2023-03-01T19:22:28;27.38;;;11.57;;
19113;SDS011;9689;51.052;13.772;2023-03-01T19:27:29;24.75;;;10.48;;
19113;SDS011;9689;51.052;13.772;2023-03-01T19:32:31;23.42;;;10.18;;
19113;SDS011;9689;51.052;13.772;2023-03-01T19:37:32;25.27;;;11.45;;
19113;SDS011;9689;51.052;13.772;2023-03-01T19:42:33;35.22;;;13.70;;
19113;SDS011;9689;51.052;13.772;2023-03-01T19:47:35;27.63;;;11.55;;
19113;SDS011;9689;51.052;13.772;2023-03-01T19:52:36;28.23;;;11.60;;
19113;SDS011;9689;51.052;13.772;2023-03-01T19:57:37;28.80;;;11.65;;
19113;SDS011;9689;51.052;13.772;2023-03-01T20:02:39;28.95;;;11.75;;
19113;SDS011;9689;51.052;13.772;2023-03-01T20:07:40;30.13;;;11.77;;
19113;SDS011;9689;51.052;13.772;2023-03-01T20:12:42;30.48;;;13.23;;
19113;SDS011;9689;51.052;13.772;2023-03-01T20:17:44;30.00;;;11.55;;
19113;SDS011;9689;51.052;13.772;2023-03-01T20:22:46;31.02;;;13.18;;
19113;SDS011;9689;51.052;13.772;2023-03-01T20:27:46;28.88;;;12.45;;
19113;SDS011;9689;51.052;13.772;2023-03-01T20:32:51;30.70;;;13.35;;
19113;SDS011;9689;51.052;13.772;2023-03-01T20:37:51;32.67;;;13.20;;
19113;SDS011;9689;51.052;13.772;2023-03-01T20:42:52;28.85;;;12.57;;
19113;SDS011;9689;51.052;13.772;2023-03-01T20:47:54;33.42;;;14.07;;
19113;SDS011;9689;51.052;13.772;2023-03-01T20:52:55;39.50;;;16.02;;
19113;SDS011;9689;51.052;13.772;2023-03-01T20:57:56;41.30;;;16.20;;
19113;SDS011;9689;51.052;13.772;2023-03-01T21:02:58;47.92;;;18.17;;
19113;SDS011;9689;51.052;13.772;2023-03-01T21:07:58;47.50;;;20.48;;
19113;SDS011;9689;51.052;13.772;2023-03-01T21:13:01;53.25;;;22.45;;
19113;SDS011;9689;51.052;13.772;2023-03-01T21:18:03;52.00;;;21.67;;
19113;SDS011;9689;51.052;13.772;2023-03-01T21:23:04;54.17;;;22.98;;
19113;SDS011;9689;51.052;13.772;2023-03-01T21:28:04;53.10;;;21.50;;
19113;SDS011;9689;51.052;13.772;2023-03-01T21:33:06;61.25;;;24.90;;
19113;SDS011;9689;51.052;13.772;2023-03-01T21:38:07;57.17;;;22.42;;
19113;SDS011;9689;51.052;13.772;2023-03-01T21:43:08;57.28;;;22.85;;
19113;SDS011;9689;51.052;13.772;2023-03-01T21:48:10;60.80;;;23.75;;
19113;SDS011;9689;51.052;13.772;2023-03-01T21:53:11;57.97;;;23.38;;
19113;SDS011;9689;51.052;13.772;2023-03-01T21:58:11;51.03;;;22.58;;
19113;SDS011;9689;51.052;13.772;2023-03-01T22:03:14;55.78;;;22.40;;
19113;SDS011;9689;51.052;13.772;2023-03-01T22:08:16;52.85;;;22.35;;
19113;SDS011;9689;51.052;13.772;2023-03-01T22:13:17;47.33;;;22.90;;
19113;SDS011;9689;51.052;13.772;2023-03-01T22:18:19;54.22;;;23.15;;
19113;SDS011;9689;51.052;13.772;2023-03-01T22:23:20;54.28;;;23.00;;
19113;SDS011;9689;51.052;13.772;2023-03-01T22:28:21;63.25;;;24.35;;
19113;SDS011;9689;51.052;13.772;2023-03-01T22:33:23;64.25;;;24.52;;
19113;SDS011;9689;51.052;13.772;2023-03-01T22:38:23;53.60;;;23.45;;
19113;SDS011;9689;51.052;13.772;2023-03-01T22:43:25;61.95;;;25.85;;
19113;SDS011;9689;51.052;13.772;2023-03-01T22:48:27;51.95;;;22.65;;
19113;SDS011;9689;51.052;13.772;2023-03-01T22:53:28;50.88;;;23.30;;
19113;SDS011;9689;51.052;13.772;2023-03-01T22:58:29;55.15;;;22.45;;
19113;SDS011;9689;51.052;13.772;2023-03-01T23:03:31;56.00;;;23.48;;
19113;SDS011;9689;51.052;13.772;2023-03-01T23:08:32;53.75;;;23.65;;
19113;SDS011;9689;51.052;13.772;2023-03-01T23:13:33;55.00;;;23.30;;
19113;SDS011;9689;51.052;13.772;2023-03-01T23:18:35;48.97;;;23.02;;
19113;SDS011;9689;51.052;13.772;2023-03-01T23:23:36;57.33;;;24.15;;
19113;SDS011;9689;51.052;13.772;2023-03-01T23:28:37;56.15;;;24.45;;
19113;SDS011;9689;51.052;13.772;2023-03-01T23:33:41;48.67;;;22.45;;
19113;SDS011;9689;51.052;13.772;2023-03-01T23:38:43;56.70;;;24.58;;
19113;SDS011;9689;51.052;13.772;2023-03-01T23:43:45;53.47;;;22.45;;
19113;SDS011;9689;51.052;13.772;2023-03-01T23:48:48;47.65;;;21.98;;
19113;SDS011;9689;51.052;13.772;2023-03-01T23:53:51;48.67;;;22.13;;
19113;SDS011;9689;51.052;13.772;2023-03-01T23:58:54;46.85;;;21.42;;
